createdAt,value
2017-06-22T00:00:07.918Z,942.74
2017-06-22T00:00:35.868Z,942.73
2017-06-22T00:01:04.409Z,942.81
2017-06-22T00:01:32.470Z,942.81
2017-06-22T00:02:00.613Z,942.78
2017-06-22T00:02:28.736Z,942.76
2017-06-22T00:02:56.914Z,942.82
2017-06-22T00:03:25.053Z,942.79
2017-06-22T00:03:53.210Z,942.8
2017-06-22T00:04:21.373Z,942.8
2017-06-22T00:04:49.512Z,942.76
2017-06-22T00:05:17.677Z,942.8
2017-06-22T00:05:45.800Z,942.85
2017-06-22T00:06:13.964Z,942.88
2017-06-22T00:06:41.942Z,942.85
2017-06-22T00:07:10.073Z,942.86
2017-06-22T00:07:38.232Z,942.86
2017-06-22T00:08:06.278Z,942.92
2017-06-22T00:08:34.382Z,942.89
2017-06-22T00:09:02.434Z,942.84
2017-06-22T00:09:30.585Z,942.85
2017-06-22T00:09:58.741Z,942.88
2017-06-22T00:10:26.869Z,942.87
2017-06-22T00:10:54.985Z,942.87
2017-06-22T00:11:23.122Z,942.89
2017-06-22T00:11:51.260Z,942.89
2017-06-22T00:12:19.392Z,942.91
2017-06-22T00:12:47.540Z,942.88
2017-06-22T00:13:15.687Z,942.88
2017-06-22T00:13:43.864Z,942.9
2017-06-22T00:14:12.015Z,942.9
2017-06-22T00:14:40.171Z,942.87
2017-06-22T00:15:08.328Z,942.93
2017-06-22T00:15:36.397Z,942.87
2017-06-22T00:16:04.548Z,942.93
2017-06-22T00:16:32.685Z,942.92
2017-06-22T00:17:00.795Z,942.91
2017-06-22T00:17:28.914Z,942.93
2017-06-22T00:17:57.059Z,942.95
2017-06-22T00:18:25.225Z,942.94
2017-06-22T00:18:53.267Z,942.97
2017-06-22T00:19:21.344Z,942.97
2017-06-22T00:19:49.501Z,942.96
2017-06-22T00:20:17.581Z,942.94
2017-06-22T00:20:45.727Z,942.95
2017-06-22T00:21:13.941Z,942.96
2017-06-22T00:21:42.011Z,942.94
2017-06-22T00:22:10.171Z,942.99
2017-06-22T00:22:38.318Z,942.99
2017-06-22T00:23:06.435Z,942.99
2017-06-22T00:23:34.468Z,943.01
2017-06-22T00:24:02.441Z,942.99
2017-06-22T00:24:30.618Z,943.02
2017-06-22T00:24:58.775Z,942.97
2017-06-22T00:25:26.745Z,942.99
2017-06-22T00:25:54.877Z,943.05
2017-06-22T00:26:23.044Z,943.05
2017-06-22T00:26:51.196Z,943.06
2017-06-22T00:27:19.190Z,943.05
2017-06-22T00:27:47.361Z,943.03
2017-06-22T00:28:15.312Z,943.07
2017-06-22T00:28:43.444Z,943.06
2017-06-22T00:29:11.567Z,943.05
2017-06-22T00:29:39.719Z,943.08
2017-06-22T00:30:07.873Z,943.05
2017-06-22T00:30:35.956Z,943.11
2017-06-22T00:31:03.905Z,943.07
2017-06-22T00:31:32.057Z,943.06
2017-06-22T00:32:00.209Z,943.08
2017-06-22T00:32:28.326Z,943.06
2017-06-22T00:32:56.341Z,943.13
2017-06-22T00:33:24.489Z,943.06
2017-06-22T00:33:52.586Z,943.08
2017-06-22T00:34:20.703Z,943.05
2017-06-22T00:34:48.847Z,943.08
2017-06-22T00:35:17.040Z,943.07
2017-06-22T00:35:45.187Z,942.95
2017-06-22T00:36:13.327Z,943.11
2017-06-22T00:36:41.477Z,943.12
2017-06-22T00:37:09.427Z,943.09
2017-06-22T00:37:37.589Z,943.09
2017-06-22T00:38:05.763Z,943.14
2017-06-22T00:38:33.877Z,943.09
2017-06-22T00:39:02.024Z,943.09
2017-06-22T00:39:30.592Z,943.04
2017-06-22T00:39:58.723Z,943.06
2017-06-22T00:40:27.075Z,943.08
2017-06-22T00:40:55.144Z,943.06
2017-06-22T00:41:23.190Z,943.08
2017-06-22T00:41:51.255Z,943.08
2017-06-22T00:42:19.291Z,943.07
2017-06-22T00:42:47.404Z,943.02
2017-06-22T00:43:15.469Z,943.03
2017-06-22T00:43:43.554Z,943.08
2017-06-22T00:44:11.744Z,943.03
2017-06-22T00:44:39.935Z,943.06
2017-06-22T00:45:08.101Z,943.02
2017-06-22T00:45:36.253Z,943.03
2017-06-22T00:46:04.425Z,943.01
2017-06-22T00:46:32.585Z,943.03
2017-06-22T00:47:00.704Z,943.04
2017-06-22T00:47:28.748Z,943.02
2017-06-22T00:47:56.921Z,943.05
2017-06-22T00:48:24.975Z,943.06
2017-06-22T00:48:53.108Z,942.97
2017-06-22T00:49:21.234Z,943.03
2017-06-22T00:49:49.256Z,943.08
2017-06-22T00:50:17.405Z,943.05
2017-06-22T00:50:45.444Z,943.06
2017-06-22T00:51:13.603Z,943.04
2017-06-22T00:51:41.664Z,943.08
2017-06-22T00:52:09.819Z,943.07
2017-06-22T00:52:37.875Z,943.06
2017-06-22T00:53:06.107Z,943.05
2017-06-22T00:53:34.232Z,943.1
2017-06-22T00:54:02.255Z,943.06
2017-06-22T00:54:30.184Z,943.1
2017-06-22T00:54:58.337Z,943.09
2017-06-22T00:55:26.481Z,943.07
2017-06-22T00:55:54.642Z,943.08
2017-06-22T00:56:22.748Z,943.09
2017-06-22T00:56:50.908Z,943.12
2017-06-22T00:57:19.061Z,943.09
2017-06-22T00:57:47.209Z,943.08
2017-06-22T00:58:15.257Z,943.08
2017-06-22T00:58:43.424Z,943.07
2017-06-22T00:59:11.383Z,943.06
2017-06-22T00:59:39.517Z,943.07
2017-06-22T01:00:07.659Z,943.08
2017-06-22T01:00:35.802Z,943.1
2017-06-22T01:01:03.942Z,943.09
2017-06-22T01:01:32.096Z,943.07
2017-06-22T01:02:00.150Z,943.06
2017-06-22T01:02:28.298Z,943.05
2017-06-22T01:02:56.317Z,943.1
2017-06-22T01:03:24.375Z,943.09
2017-06-22T01:03:52.511Z,943.02
2017-06-22T01:04:20.624Z,943.07
2017-06-22T01:04:48.759Z,943.07
2017-06-22T01:05:16.822Z,943.06
2017-06-22T01:05:44.853Z,943.06
2017-06-22T01:06:12.988Z,943.09
2017-06-22T01:06:41.193Z,943.06
2017-06-22T01:07:09.221Z,943.1
2017-06-22T01:07:37.221Z,943.07
2017-06-22T01:08:05.262Z,943.06
2017-06-22T01:08:33.458Z,943.1
2017-06-22T01:09:01.580Z,943.05
2017-06-22T01:09:29.384Z,943.08
2017-06-22T01:09:57.415Z,943.13
2017-06-22T01:10:25.492Z,943.09
2017-06-22T01:10:53.603Z,943.07
2017-06-22T01:11:21.728Z,943.08
2017-06-22T01:11:49.874Z,943.11
2017-06-22T01:12:17.994Z,943.09
2017-06-22T01:12:46.129Z,943.09
2017-06-22T01:13:14.269Z,943.03
2017-06-22T01:13:42.319Z,943.03
2017-06-22T01:14:10.486Z,943.1
2017-06-22T01:14:38.636Z,943.09
2017-06-22T01:15:06.676Z,943.04
2017-06-22T01:15:34.752Z,943.07
2017-06-22T01:16:02.884Z,943.07
2017-06-22T01:16:31.026Z,943.08
2017-06-22T01:16:59.159Z,943.1
2017-06-22T01:17:27.218Z,943.09
2017-06-22T01:17:55.239Z,943.04
2017-06-22T01:18:23.382Z,943.04
2017-06-22T01:18:51.549Z,943.03
2017-06-22T01:19:19.586Z,943.1
2017-06-22T01:19:47.705Z,943.09
2017-06-22T01:20:15.847Z,943.08
2017-06-22T01:20:43.965Z,942.98
2017-06-22T01:21:12.098Z,943.06
2017-06-22T01:21:40.139Z,943.04
2017-06-22T01:22:08.280Z,943.08
2017-06-22T01:22:36.424Z,943.11
2017-06-22T01:23:04.475Z,943.03
2017-06-22T01:23:32.650Z,943.03
2017-06-22T01:24:00.696Z,943.04
2017-06-22T01:24:28.715Z,943.05
2017-06-22T01:24:56.847Z,943.02
2017-06-22T01:25:24.953Z,943.01
2017-06-22T01:25:53.057Z,942.99
2017-06-22T01:26:21.216Z,943.05
2017-06-22T01:26:49.365Z,943
2017-06-22T01:27:17.497Z,943
2017-06-22T01:27:45.508Z,943.02
2017-06-22T01:28:13.669Z,943.04
2017-06-22T01:28:41.850Z,942.96
2017-06-22T01:29:09.810Z,942.97
2017-06-22T01:29:37.905Z,942.98
2017-06-22T01:30:06.045Z,942.96
2017-06-22T01:30:34.000Z,942.97
2017-06-22T01:31:02.162Z,942.95
2017-06-22T01:31:30.293Z,943.03
2017-06-22T01:31:58.411Z,942.99
2017-06-22T01:32:26.559Z,942.96
2017-06-22T01:32:54.701Z,942.99
2017-06-22T01:33:22.848Z,942.98
2017-06-22T01:33:50.976Z,942.97
2017-06-22T01:34:19.232Z,942.99
2017-06-22T01:34:47.383Z,942.95
2017-06-22T01:35:15.429Z,942.96
2017-06-22T01:35:43.497Z,942.96
2017-06-22T01:36:11.627Z,942.94
2017-06-22T01:36:39.671Z,942.93
2017-06-22T01:37:07.826Z,942.95
2017-06-22T01:37:35.975Z,942.93
2017-06-22T01:38:04.344Z,942.9
2017-06-22T01:38:32.392Z,942.92
2017-06-22T01:39:00.511Z,942.95
2017-06-22T01:39:28.655Z,942.96
2017-06-22T01:39:56.790Z,942.99
2017-06-22T01:40:24.819Z,942.96
2017-06-22T01:40:52.949Z,942.95
2017-06-22T01:41:21.102Z,942.97
2017-06-22T01:41:49.221Z,942.97
2017-06-22T01:42:17.263Z,942.93
2017-06-22T01:42:45.306Z,942.96
2017-06-22T01:43:13.415Z,942.96
2017-06-22T01:43:41.579Z,942.98
2017-06-22T01:44:09.629Z,942.9
2017-06-22T01:44:37.698Z,942.95
2017-06-22T01:45:05.842Z,942.93
2017-06-22T01:45:34.132Z,942.99
2017-06-22T01:46:02.476Z,942.96
2017-06-22T01:46:30.974Z,943.03
2017-06-22T01:46:59.477Z,943.01
2017-06-22T01:47:28.069Z,943.02
2017-06-22T01:47:56.551Z,942.94
2017-06-22T01:48:25.058Z,942.99
2017-06-22T01:48:53.666Z,942.99
2017-06-22T01:49:22.295Z,943.01
2017-06-22T01:49:50.912Z,943.02
2017-06-22T01:50:19.328Z,943.03
2017-06-22T01:50:47.919Z,943.01
2017-06-22T01:51:16.556Z,943
2017-06-22T01:51:45.156Z,943.01
2017-06-22T01:52:13.776Z,943
2017-06-22T01:52:42.276Z,943.01
2017-06-22T01:53:10.886Z,943.04
2017-06-22T01:53:39.521Z,943.02
2017-06-22T01:54:08.016Z,943.01
2017-06-22T01:54:36.625Z,942.99
2017-06-22T01:55:05.223Z,943
2017-06-22T01:55:33.934Z,942.98
2017-06-22T01:56:02.523Z,943.02
2017-06-22T01:56:31.153Z,942.97
2017-06-22T01:56:59.720Z,943.03
2017-06-22T01:57:28.312Z,943.01
2017-06-22T01:57:56.917Z,942.97
2017-06-22T01:58:25.511Z,942.95
2017-06-22T01:58:54.042Z,943
2017-06-22T01:59:22.558Z,942.96
2017-06-22T01:59:51.080Z,942.95
2017-06-22T02:00:19.572Z,943
2017-06-22T02:00:48.090Z,942.96
2017-06-22T02:01:16.595Z,942.95
2017-06-22T02:01:45.190Z,942.96
2017-06-22T02:02:13.713Z,942.95
2017-06-22T02:02:42.328Z,942.99
2017-06-22T02:03:10.727Z,942.98
2017-06-22T02:03:39.246Z,942.93
2017-06-22T02:04:07.864Z,942.96
2017-06-22T02:04:36.494Z,942.9
2017-06-22T02:05:05.095Z,942.92
2017-06-22T02:05:33.710Z,942.93
2017-06-22T02:06:02.335Z,942.93
2017-06-22T02:06:30.957Z,942.91
2017-06-22T02:06:59.567Z,942.92
2017-06-22T02:07:28.118Z,942.92
2017-06-22T02:07:56.310Z,942.94
2017-06-22T02:08:24.458Z,942.92
2017-06-22T02:08:52.613Z,942.9
2017-06-22T02:09:20.816Z,942.88
2017-06-22T02:09:49.194Z,942.92
2017-06-22T02:10:17.551Z,942.94
2017-06-22T02:10:45.818Z,942.89
2017-06-22T02:11:14.227Z,942.88
2017-06-22T02:11:42.502Z,942.9
2017-06-22T02:12:10.893Z,942.85
2017-06-22T02:12:39.249Z,942.89
2017-06-22T02:13:07.624Z,942.87
2017-06-22T02:13:36.004Z,942.84
2017-06-22T02:14:04.368Z,942.85
2017-06-22T02:14:32.776Z,942.9
2017-06-22T02:15:01.122Z,942.88
2017-06-22T02:15:29.471Z,942.86
2017-06-22T02:15:57.836Z,942.88
2017-06-22T02:16:26.208Z,942.87
2017-06-22T02:16:54.595Z,942.84
2017-06-22T02:17:22.974Z,942.87
2017-06-22T02:17:51.342Z,942.85
2017-06-22T02:18:19.713Z,942.84
2017-06-22T02:18:47.975Z,942.83
2017-06-22T02:19:16.365Z,942.86
2017-06-22T02:19:44.735Z,942.83
2017-06-22T02:20:13.108Z,942.85
2017-06-22T02:20:41.455Z,942.79
2017-06-22T02:21:09.739Z,942.8
2017-06-22T02:21:38.078Z,942.77
2017-06-22T02:22:06.386Z,942.85
2017-06-22T02:22:34.746Z,942.82
2017-06-22T02:23:03.282Z,942.8
2017-06-22T02:23:32.779Z,942.81
2017-06-22T02:24:01.400Z,942.79
2017-06-22T02:24:29.913Z,942.84
2017-06-22T02:24:58.540Z,942.84
2017-06-22T02:25:27.139Z,942.85
2017-06-22T02:25:55.728Z,942.86
2017-06-22T02:26:24.335Z,942.86
2017-06-22T02:26:52.867Z,942.87
2017-06-22T02:27:21.484Z,942.85
2017-06-22T02:27:49.919Z,942.86
2017-06-22T02:28:18.512Z,942.9
2017-06-22T02:28:46.933Z,942.9
2017-06-22T02:29:15.534Z,942.89
2017-06-22T02:29:44.057Z,942.89
2017-06-22T02:30:12.624Z,942.86
2017-06-22T02:30:41.333Z,942.88
2017-06-22T02:31:09.961Z,942.87
2017-06-22T02:31:38.608Z,942.86
2017-06-22T02:32:07.128Z,942.86
2017-06-22T02:32:35.759Z,942.83
2017-06-22T02:33:04.391Z,942.81
2017-06-22T02:33:33.004Z,942.86
2017-06-22T02:34:01.527Z,942.84
2017-06-22T02:34:30.123Z,942.84
2017-06-22T02:34:58.467Z,942.82
2017-06-22T02:35:27.070Z,942.82
2017-06-22T02:35:55.666Z,942.78
2017-06-22T02:36:24.282Z,942.81
2017-06-22T02:36:52.888Z,942.79
2017-06-22T02:37:21.481Z,942.8
2017-06-22T02:37:50.102Z,942.8
2017-06-22T02:38:18.595Z,942.8
2017-06-22T02:38:47.110Z,942.79
2017-06-22T02:39:15.749Z,942.78
2017-06-22T02:39:44.271Z,942.77
2017-06-22T02:40:12.791Z,942.8
2017-06-22T02:40:42.604Z,942.75
2017-06-22T02:41:12.680Z,942.76
2017-06-22T02:41:41.929Z,942.76
2017-06-22T02:42:25.436Z,942.75
2017-06-22T02:42:54.354Z,942.72
2017-06-22T02:43:22.980Z,942.73
2017-06-22T02:43:51.565Z,942.72
2017-06-22T02:44:20.154Z,942.71
2017-06-22T02:44:48.747Z,942.76
2017-06-22T02:45:17.336Z,942.69
2017-06-22T02:45:45.933Z,942.72
2017-06-22T02:46:14.531Z,942.74
2017-06-22T02:46:43.138Z,942.75
2017-06-22T02:47:11.741Z,942.76
2017-06-22T02:47:40.348Z,942.77
2017-06-22T02:48:08.911Z,942.76
2017-06-22T02:48:37.196Z,942.72
2017-06-22T02:49:05.219Z,942.75
2017-06-22T02:49:33.330Z,942.75
2017-06-22T02:50:01.399Z,942.74
2017-06-22T02:50:29.545Z,942.72
2017-06-22T02:50:57.593Z,942.72
2017-06-22T02:51:25.724Z,942.69
2017-06-22T02:51:53.650Z,942.73
2017-06-22T02:52:21.768Z,942.73
2017-06-22T02:52:49.941Z,942.7
2017-06-22T02:53:18.098Z,942.68
2017-06-22T02:53:46.156Z,942.71
2017-06-22T02:54:14.192Z,942.68
2017-06-22T02:54:42.315Z,942.7
2017-06-22T02:55:10.468Z,942.71
2017-06-22T02:55:38.591Z,942.71
2017-06-22T02:56:06.652Z,942.73
2017-06-22T02:56:34.789Z,942.69
2017-06-22T02:57:02.942Z,942.69
2017-06-22T02:57:31.086Z,942.68
2017-06-22T02:57:59.213Z,942.69
2017-06-22T02:58:27.385Z,942.7
2017-06-22T02:58:55.415Z,942.67
2017-06-22T02:59:23.360Z,942.62
2017-06-22T02:59:51.386Z,942.71
2017-06-22T03:00:19.512Z,942.7
2017-06-22T03:00:47.609Z,942.64
2017-06-22T03:01:15.783Z,942.64
2017-06-22T03:01:43.912Z,942.64
2017-06-22T03:02:12.036Z,942.62
2017-06-22T03:02:40.174Z,942.71
2017-06-22T03:03:08.324Z,942.66
2017-06-22T03:03:36.410Z,942.62
2017-06-22T03:04:04.461Z,942.64
2017-06-22T03:04:32.578Z,942.63
2017-06-22T03:05:00.715Z,942.63
2017-06-22T03:05:28.848Z,942.63
2017-06-22T03:05:56.982Z,942.64
2017-06-22T03:06:25.114Z,942.65
2017-06-22T03:06:53.256Z,942.7
2017-06-22T03:07:21.399Z,942.65
2017-06-22T03:07:49.534Z,942.64
2017-06-22T03:08:17.689Z,942.69
2017-06-22T03:08:45.839Z,942.63
2017-06-22T03:09:13.973Z,942.68
2017-06-22T03:09:42.015Z,942.64
2017-06-22T03:10:10.161Z,942.63
2017-06-22T03:10:38.298Z,942.67
2017-06-22T03:11:06.433Z,942.63
2017-06-22T03:11:34.486Z,942.6
2017-06-22T03:12:02.628Z,942.6
2017-06-22T03:12:30.649Z,942.6
2017-06-22T03:12:58.493Z,942.61
2017-06-22T03:13:27.240Z,942.59
2017-06-22T03:13:55.289Z,942.59
2017-06-22T03:14:23.442Z,942.61
2017-06-22T03:14:51.583Z,942.62
2017-06-22T03:15:19.648Z,942.61
2017-06-22T03:15:47.757Z,942.66
2017-06-22T03:16:15.794Z,942.58
2017-06-22T03:16:43.952Z,942.63
2017-06-22T03:17:12.012Z,942.59
2017-06-22T03:17:40.136Z,942.62
2017-06-22T03:18:08.267Z,942.64
2017-06-22T03:18:36.275Z,942.64
2017-06-22T03:19:04.315Z,942.61
2017-06-22T03:19:32.476Z,942.6
2017-06-22T03:20:00.540Z,942.59
2017-06-22T03:20:28.489Z,942.63
2017-06-22T03:20:56.528Z,942.62
2017-06-22T03:21:24.579Z,942.61
2017-06-22T03:21:52.511Z,942.61
2017-06-22T03:22:20.649Z,942.62
2017-06-22T03:22:48.777Z,942.62
2017-06-22T03:23:16.932Z,942.61
2017-06-22T03:23:45.075Z,942.59
2017-06-22T03:24:13.245Z,942.6
2017-06-22T03:24:41.302Z,942.6
2017-06-22T03:25:09.446Z,942.56
2017-06-22T03:25:37.609Z,942.6
2017-06-22T03:26:05.733Z,942.58
2017-06-22T03:26:33.857Z,942.57
2017-06-22T03:27:01.913Z,942.6
2017-06-22T03:27:29.964Z,942.57
2017-06-22T03:27:57.981Z,942.53
2017-06-22T03:28:26.128Z,942.54
2017-06-22T03:28:54.255Z,942.56
2017-06-22T03:29:22.489Z,942.55
2017-06-22T03:29:50.881Z,942.51
2017-06-22T03:30:19.261Z,942.53
2017-06-22T03:30:47.467Z,942.56
2017-06-22T03:31:15.847Z,942.55
2017-06-22T03:31:44.128Z,942.53
2017-06-22T03:32:12.501Z,942.57
2017-06-22T03:32:40.802Z,942.54
2017-06-22T03:33:09.075Z,942.53
2017-06-22T03:33:37.468Z,942.56
2017-06-22T03:34:05.823Z,942.53
2017-06-22T03:34:34.172Z,942.53
2017-06-22T03:35:02.559Z,942.52
2017-06-22T03:35:30.927Z,942.55
2017-06-22T03:35:59.274Z,942.53
2017-06-22T03:36:27.642Z,942.52
2017-06-22T03:36:56.021Z,942.52
2017-06-22T03:37:24.393Z,942.57
2017-06-22T03:37:52.766Z,942.53
2017-06-22T03:38:20.925Z,942.57
2017-06-22T03:38:48.981Z,942.58
2017-06-22T03:39:17.124Z,942.56
2017-06-22T03:39:45.233Z,942.53
2017-06-22T03:40:13.382Z,942.57
2017-06-22T03:40:41.425Z,942.54
2017-06-22T03:41:09.592Z,942.55
2017-06-22T03:41:37.721Z,942.54
2017-06-22T03:42:05.833Z,942.54
2017-06-22T03:42:34.205Z,942.54
2017-06-22T03:43:02.577Z,942.53
2017-06-22T03:43:30.846Z,942.54
2017-06-22T03:43:59.097Z,942.54
2017-06-22T03:44:27.717Z,942.53
2017-06-22T03:44:56.310Z,942.48
2017-06-22T03:45:24.957Z,942.5
2017-06-22T03:45:53.562Z,942.53
2017-06-22T03:46:22.198Z,942.51
2017-06-22T03:46:50.801Z,942.5
2017-06-22T03:47:19.396Z,942.54
2017-06-22T03:47:47.996Z,942.53
2017-06-22T03:48:16.600Z,942.53
2017-06-22T03:48:45.219Z,942.5
2017-06-22T03:49:13.789Z,942.52
2017-06-22T03:49:42.375Z,942.5
2017-06-22T03:50:11.063Z,942.5
2017-06-22T03:50:39.660Z,942.52
2017-06-22T03:51:08.261Z,942.52
2017-06-22T03:51:36.782Z,942.51
2017-06-22T03:52:05.326Z,942.48
2017-06-22T03:52:33.928Z,942.54
2017-06-22T03:53:02.538Z,942.49
2017-06-22T03:53:31.150Z,942.55
2017-06-22T03:53:59.580Z,942.55
2017-06-22T03:54:28.199Z,942.55
2017-06-22T03:54:56.706Z,942.53
2017-06-22T03:55:25.327Z,942.52
2017-06-22T03:55:53.903Z,942.53
2017-06-22T03:56:22.152Z,942.51
2017-06-22T03:56:50.279Z,942.48
2017-06-22T03:57:18.411Z,942.51
2017-06-22T03:57:46.544Z,942.52
2017-06-22T03:58:14.666Z,942.47
2017-06-22T03:58:42.618Z,942.52
2017-06-22T03:59:10.569Z,942.5
2017-06-22T03:59:38.703Z,942.48
2017-06-22T04:00:06.826Z,942.48
2017-06-22T04:00:34.936Z,942.47
2017-06-22T04:01:03.278Z,942.47
2017-06-22T04:01:31.415Z,942.45
2017-06-22T04:01:59.563Z,942.47
2017-06-22T04:02:27.705Z,942.49
2017-06-22T04:02:55.776Z,942.51
2017-06-22T04:03:23.918Z,942.44
2017-06-22T04:03:52.079Z,942.47
2017-06-22T04:04:20.236Z,942.44
2017-06-22T04:04:48.193Z,942.48
2017-06-22T04:05:16.338Z,942.44
2017-06-22T04:05:44.376Z,942.42
2017-06-22T04:06:12.500Z,942.45
2017-06-22T04:06:40.643Z,942.39
2017-06-22T04:07:08.584Z,942.43
2017-06-22T04:07:36.723Z,942.37
2017-06-22T04:08:04.876Z,942.4
2017-06-22T04:08:32.919Z,942.39
2017-06-22T04:09:00.941Z,942.41
2017-06-22T04:09:29.002Z,942.4
2017-06-22T04:09:57.117Z,942.32
2017-06-22T04:10:25.250Z,942.29
2017-06-22T04:10:53.096Z,942.38
2017-06-22T04:11:21.226Z,942.36
2017-06-22T04:11:49.378Z,942.32
2017-06-22T04:12:17.428Z,942.34
2017-06-22T04:12:45.488Z,942.32
2017-06-22T04:13:13.550Z,942.35
2017-06-22T04:13:41.589Z,942.34
2017-06-22T04:14:09.722Z,942.35
2017-06-22T04:14:37.771Z,942.32
2017-06-22T04:15:05.801Z,942.32
2017-06-22T04:15:33.938Z,942.3
2017-06-22T04:16:02.299Z,942.28
2017-06-22T04:16:30.389Z,942.3
2017-06-22T04:16:58.513Z,942.27
2017-06-22T04:17:26.636Z,942.27
2017-06-22T04:17:54.772Z,942.32
2017-06-22T04:18:22.870Z,942.28
2017-06-22T04:18:51.034Z,942.25
2017-06-22T04:19:19.191Z,942.28
2017-06-22T04:19:47.302Z,942.26
2017-06-22T04:20:15.316Z,942.23
2017-06-22T04:20:43.358Z,942.26
2017-06-22T04:21:11.399Z,942.26
2017-06-22T04:21:39.434Z,942.28
2017-06-22T04:22:07.558Z,942.26
2017-06-22T04:22:35.700Z,942.24
2017-06-22T04:23:03.843Z,942.22
2017-06-22T04:23:31.998Z,942.18
2017-06-22T04:24:00.053Z,942.17
2017-06-22T04:24:28.226Z,942.18
2017-06-22T04:24:56.357Z,942.18
2017-06-22T04:25:24.504Z,942.2
2017-06-22T04:25:52.553Z,942.19
2017-06-22T04:26:20.685Z,942.2
2017-06-22T04:26:48.520Z,942.15
2017-06-22T04:27:16.649Z,942.2
2017-06-22T04:27:44.581Z,942.17
2017-06-22T04:28:12.709Z,942.2
2017-06-22T04:28:40.762Z,942.17
2017-06-22T04:29:08.897Z,942.16
2017-06-22T04:29:37.065Z,942.18
2017-06-22T04:30:05.207Z,942.17
2017-06-22T04:30:33.361Z,942.15
2017-06-22T04:31:01.318Z,942.11
2017-06-22T04:31:29.447Z,942.17
2017-06-22T04:31:57.607Z,942.18
2017-06-22T04:32:25.732Z,942.12
2017-06-22T04:32:53.764Z,942.12
2017-06-22T04:33:21.821Z,942.07
2017-06-22T04:33:50.002Z,942.16
2017-06-22T04:34:18.170Z,942.13
2017-06-22T04:34:46.095Z,942.15
2017-06-22T04:35:14.112Z,942.1
2017-06-22T04:35:42.170Z,942.1
2017-06-22T04:36:10.220Z,942.11
2017-06-22T04:36:38.276Z,942.13
2017-06-22T04:37:06.413Z,942.09
2017-06-22T04:37:34.468Z,942.12
2017-06-22T04:38:02.583Z,942.09
2017-06-22T04:38:30.690Z,942.09
2017-06-22T04:38:58.728Z,942.06
2017-06-22T04:39:26.842Z,942.08
2017-06-22T04:39:54.882Z,942.07
2017-06-22T04:40:23.022Z,942.03
2017-06-22T04:40:51.146Z,942.06
2017-06-22T04:41:19.246Z,942.02
2017-06-22T04:41:47.299Z,942.03
2017-06-22T04:42:15.439Z,942.04
2017-06-22T04:42:43.550Z,941.98
2017-06-22T04:43:11.680Z,941.97
2017-06-22T04:43:39.729Z,942
2017-06-22T04:44:07.877Z,941.97
2017-06-22T04:44:35.992Z,941.97
2017-06-22T04:45:04.029Z,941.96
2017-06-22T04:45:32.082Z,941.98
2017-06-22T04:46:00.223Z,941.98
2017-06-22T04:46:28.269Z,941.95
2017-06-22T04:46:56.417Z,941.94
2017-06-22T04:47:24.556Z,941.92
2017-06-22T04:47:52.492Z,941.95
2017-06-22T04:48:20.613Z,941.95
2017-06-22T04:48:48.640Z,941.96
2017-06-22T04:49:16.685Z,941.94
2017-06-22T04:49:44.846Z,941.94
2017-06-22T04:50:12.977Z,941.93
2017-06-22T04:50:41.029Z,941.94
2017-06-22T04:51:09.149Z,941.97
2017-06-22T04:51:37.476Z,941.93
2017-06-22T04:52:05.719Z,941.93
2017-06-22T04:52:34.086Z,941.91
2017-06-22T04:53:02.466Z,941.92
2017-06-22T04:53:30.761Z,941.9
2017-06-22T04:53:59.141Z,941.9
2017-06-22T04:54:27.430Z,941.87
2017-06-22T04:54:55.827Z,941.87
2017-06-22T04:55:24.184Z,941.84
2017-06-22T04:55:52.385Z,941.84
2017-06-22T04:56:20.683Z,941.82
2017-06-22T04:56:49.040Z,941.84
2017-06-22T04:57:17.412Z,941.81
2017-06-22T04:57:45.790Z,941.84
2017-06-22T04:58:14.090Z,941.85
2017-06-22T04:58:42.455Z,941.83
2017-06-22T04:59:10.807Z,941.86
2017-06-22T04:59:39.015Z,941.82
2017-06-22T05:00:07.626Z,941.85
2017-06-22T05:00:35.980Z,941.82
2017-06-22T05:01:04.350Z,941.87
2017-06-22T05:01:32.713Z,941.85
2017-06-22T05:02:01.100Z,941.87
2017-06-22T05:02:29.375Z,941.88
2017-06-22T05:02:57.685Z,941.9
2017-06-22T05:03:25.968Z,941.88
2017-06-22T05:03:54.337Z,941.91
2017-06-22T05:04:22.749Z,941.86
2017-06-22T05:04:51.131Z,941.87
2017-06-22T05:05:19.500Z,941.85
2017-06-22T05:05:47.866Z,941.85
2017-06-22T05:06:16.132Z,941.88
2017-06-22T05:06:44.513Z,941.85
2017-06-22T05:07:12.894Z,941.85
2017-06-22T05:07:41.288Z,941.83
2017-06-22T05:08:09.476Z,941.86
2017-06-22T05:08:57.168Z,941.81
2017-06-22T05:09:25.554Z,941.85
2017-06-22T05:09:53.762Z,941.82
2017-06-22T05:10:21.806Z,941.85
2017-06-22T05:10:49.927Z,941.84
2017-06-22T05:11:18.067Z,941.81
2017-06-22T05:11:46.210Z,941.8
2017-06-22T05:12:14.333Z,941.83
2017-06-22T05:12:42.342Z,941.78
2017-06-22T05:13:10.463Z,941.78
2017-06-22T05:13:38.596Z,941.77
2017-06-22T05:14:06.693Z,941.73
2017-06-22T05:14:34.836Z,941.74
2017-06-22T05:15:02.882Z,941.74
2017-06-22T05:15:30.819Z,941.76
2017-06-22T05:15:58.941Z,941.75
2017-06-22T05:16:27.105Z,941.78
2017-06-22T05:16:55.238Z,941.75
2017-06-22T05:17:23.295Z,941.79
2017-06-22T05:17:51.456Z,941.74
2017-06-22T05:18:19.476Z,941.74
2017-06-22T05:18:47.627Z,941.75
2017-06-22T05:19:15.745Z,941.73
2017-06-22T05:19:43.767Z,941.77
2017-06-22T05:20:11.815Z,941.78
2017-06-22T05:20:39.964Z,941.77
2017-06-22T05:21:08.081Z,941.77
2017-06-22T05:21:36.118Z,941.73
2017-06-22T05:22:04.258Z,941.72
2017-06-22T05:22:32.387Z,941.74
2017-06-22T05:23:00.437Z,941.74
2017-06-22T05:23:28.566Z,941.74
2017-06-22T05:23:56.721Z,941.75
2017-06-22T05:24:24.866Z,941.75
2017-06-22T05:24:53.028Z,941.75
2017-06-22T05:25:21.084Z,941.73
2017-06-22T05:25:49.206Z,941.74
2017-06-22T05:26:17.338Z,941.71
2017-06-22T05:26:45.389Z,941.74
2017-06-22T05:27:13.443Z,941.75
2017-06-22T05:27:41.610Z,941.74
2017-06-22T05:28:09.725Z,941.74
2017-06-22T05:28:37.662Z,941.73
2017-06-22T05:29:05.707Z,941.7
2017-06-22T05:29:33.839Z,941.71
2017-06-22T05:30:01.882Z,941.68
2017-06-22T05:30:30.036Z,941.67
2017-06-22T05:30:58.078Z,941.69
2017-06-22T05:31:26.196Z,941.68
2017-06-22T05:31:54.325Z,941.69
2017-06-22T05:32:22.376Z,941.68
2017-06-22T05:32:50.435Z,941.66
2017-06-22T05:33:18.571Z,941.71
2017-06-22T05:33:46.587Z,941.65
2017-06-22T05:34:14.638Z,941.69
2017-06-22T05:34:42.681Z,941.68
2017-06-22T05:35:10.810Z,941.66
2017-06-22T05:35:38.964Z,941.67
2017-06-22T05:36:07.087Z,941.67
2017-06-22T05:36:35.253Z,941.63
2017-06-22T05:37:03.374Z,941.63
2017-06-22T05:37:31.522Z,941.64
2017-06-22T05:37:59.646Z,941.65
2017-06-22T05:38:27.786Z,941.63
2017-06-22T05:38:55.951Z,941.6
2017-06-22T05:39:24.095Z,941.63
2017-06-22T05:39:52.423Z,941.6
2017-06-22T05:40:20.555Z,941.6
2017-06-22T05:40:48.726Z,941.61
2017-06-22T05:41:16.851Z,941.61
2017-06-22T05:41:44.891Z,941.6
2017-06-22T05:42:13.023Z,941.62
2017-06-22T05:42:41.080Z,941.61
2017-06-22T05:43:09.123Z,941.6
2017-06-22T05:43:37.172Z,941.62
2017-06-22T05:44:05.189Z,941.61
2017-06-22T05:44:33.315Z,941.61
2017-06-22T05:45:01.471Z,941.66
2017-06-22T05:45:29.697Z,941.62
2017-06-22T05:45:57.750Z,941.66
2017-06-22T05:46:25.787Z,941.62
2017-06-22T05:46:53.734Z,941.61
2017-06-22T05:47:21.830Z,941.62
2017-06-22T05:47:49.841Z,941.63
2017-06-22T05:48:17.972Z,941.6
2017-06-22T05:48:46.108Z,941.62
2017-06-22T05:49:14.269Z,941.64
2017-06-22T05:49:42.396Z,941.66
2017-06-22T05:50:10.456Z,941.66
2017-06-22T05:50:38.483Z,941.65
2017-06-22T05:51:06.619Z,941.63
2017-06-22T05:51:34.671Z,941.63
2017-06-22T05:52:02.808Z,941.65
2017-06-22T05:52:30.943Z,941.61
2017-06-22T05:52:58.876Z,941.61
2017-06-22T05:53:26.932Z,941.61
2017-06-22T05:53:55.091Z,941.59